createdAt,value
2018-08-28T00:01:22.695Z,100860.42
2018-08-28T00:03:50.036Z,100860.98
2018-08-28T00:06:17.011Z,100869.18
2018-08-28T00:08:44.016Z,100861.77
2018-08-28T00:11:11.123Z,100862.95
2018-08-28T00:13:38.108Z,100863.98
2018-08-28T00:16:05.129Z,100863.18
2018-08-28T00:18:32.121Z,100862.88
2018-08-28T00:20:59.187Z,100864.60
2018-08-28T00:23:26.161Z,100866.09
2018-08-28T00:25:53.161Z,100869.97
2018-08-28T00:28:20.144Z,100870.44
2018-08-28T00:30:47.144Z,100873.45
2018-08-28T00:33:14.146Z,100874.31
2018-08-28T00:35:41.286Z,100874.84
2018-08-28T00:38:08.341Z,100877.37
2018-08-28T00:40:35.720Z,100883.38
2018-08-28T00:43:02.796Z,100882.27
2018-08-28T00:45:29.781Z,100883.20
2018-08-28T00:47:57.404Z,100887.94
2018-08-28T00:50:24.379Z,100890.16
2018-08-28T00:52:51.352Z,100890.63
2018-08-28T00:55:18.645Z,100886.99
2018-08-28T00:57:45.667Z,100892.05
2018-08-28T01:00:12.744Z,100902.20
2018-08-28T01:02:39.818Z,100900.70
2018-08-28T01:05:06.805Z,100896.45
2018-08-28T01:07:33.884Z,100908.68
2018-08-28T01:10:00.928Z,100911.60
2018-08-28T01:12:27.984Z,100913.27
2018-08-28T01:14:54.965Z,100915.39
2018-08-28T01:17:21.941Z,100919.17
2018-08-28T01:19:49.080Z,100918.37
2018-08-28T01:22:16.136Z,100919.17
2018-08-28T01:24:43.122Z,100923.28
2018-08-28T01:27:10.145Z,100918.53
2018-08-28T01:29:37.138Z,100919.34
2018-08-28T01:32:04.120Z,100928.34
2018-08-28T01:34:31.456Z,100928.73
2018-08-28T01:36:58.431Z,100927.84
2018-08-28T01:39:25.420Z,100933.29
2018-08-28T01:41:52.472Z,100930.46
2018-08-28T01:44:19.611Z,100934.65
2018-08-28T01:46:46.656Z,100940.56
2018-08-28T01:49:13.629Z,100944.75
2018-08-28T01:51:41.349Z,100941.73
2018-08-28T01:54:08.316Z,100936.55
2018-08-28T01:56:35.491Z,100938.18
2018-08-28T01:59:02.527Z,100942.70
2018-08-28T02:01:29.585Z,100946.49
2018-08-28T02:03:57.092Z,100944.27
2018-08-28T02:06:24.078Z,100944.11
2018-08-28T02:08:51.055Z,100946.47
2018-08-28T02:11:18.154Z,100938.03
2018-08-28T02:13:45.230Z,100947.20
2018-08-28T02:16:12.205Z,100949.08
2018-08-28T02:18:39.203Z,100946.42
2018-08-28T02:21:06.267Z,100948.38
2018-08-28T02:23:33.259Z,100949.02
2018-08-28T02:26:00.255Z,100948.12
2018-08-28T02:28:27.232Z,100943.97
2018-08-28T02:30:54.487Z,100946.23
2018-08-28T02:33:21.570Z,100945.70
2018-08-28T02:35:48.540Z,100951.91
2018-08-28T02:38:15.621Z,100960.34
2018-08-28T02:40:42.704Z,100954.03
2018-08-28T02:43:09.760Z,100955.47
2018-08-28T02:45:36.997Z,100960.61
2018-08-28T02:48:04.016Z,100960.74
2018-08-28T02:50:31.007Z,100962.56
2018-08-28T02:52:58.032Z,100967.78
2018-08-28T02:55:25.004Z,100969.67
2018-08-28T02:57:51.973Z,100970.23
2018-08-28T03:00:19.383Z,100970.45
2018-08-28T03:02:46.427Z,100973.95
2018-08-28T03:05:13.348Z,100974.74
2018-08-28T03:07:40.473Z,100974.11
2018-08-28T03:10:07.520Z,100967.62
2018-08-28T03:12:34.588Z,100974.56
2018-08-28T03:15:01.721Z,100985.53
2018-08-28T03:17:28.692Z,100986.39
2018-08-28T03:19:55.674Z,100982.14
2018-08-28T03:22:22.694Z,100986.49
2018-08-28T03:24:49.680Z,100989.58
2018-08-28T03:27:16.797Z,100996.36
2018-08-28T03:29:43.891Z,100997.62
2018-08-28T03:32:10.868Z,101002.67
2018-08-28T03:34:37.860Z,101008.34
2018-08-28T03:37:04.893Z,101008.91
2018-08-28T03:39:31.904Z,101013.40
2018-08-28T03:41:58.908Z,101009.14
2018-08-28T03:44:26.000Z,101018.75
2018-08-28T03:46:53.017Z,101017.89
2018-08-28T03:49:20.078Z,101027.29
2018-08-28T03:51:47.088Z,101026.42
2018-08-28T03:54:14.155Z,101032.73
2018-08-28T03:56:41.231Z,101031.64
2018-08-28T03:59:08.252Z,101029.02
2018-08-28T04:01:35.320Z,101039.61
2018-08-28T04:04:02.496Z,101037.72
2018-08-28T04:06:29.518Z,101039.28
2018-08-28T04:08:56.491Z,101036.69
2018-08-28T04:11:23.752Z,101033.77
2018-08-28T04:13:50.720Z,101029.52
2018-08-28T04:16:17.741Z,101030.67
2018-08-28T04:18:44.975Z,101048.13
2018-08-28T04:21:11.954Z,101045.60
2018-08-28T04:23:39.025Z,101043.37
2018-08-28T04:26:06.131Z,101048.66
2018-08-28T04:28:33.114Z,101052.95
2018-08-28T04:31:00.139Z,101054.11
2018-08-28T04:33:27.110Z,101061.05
2018-08-28T04:35:54.204Z,101065.30
2018-08-28T04:38:21.380Z,101062.61
2018-08-28T04:40:48.392Z,101060.09
2018-08-28T04:43:15.667Z,101062.55
2018-08-28T04:45:42.653Z,101059.92
2018-08-28T04:48:09.760Z,101063.24
2018-08-28T04:50:36.892Z,101072.08
2018-08-28T04:53:04.087Z,101069.48
2018-08-28T04:55:31.120Z,101071.61
2018-08-28T04:57:58.493Z,101073.34
2018-08-28T05:00:25.459Z,101071.38
2018-08-28T05:02:52.455Z,101080.78
2018-08-28T05:05:19.543Z,101080.63
2018-08-28T05:07:46.593Z,101083.61
2018-08-28T05:10:13.603Z,101084.28
2018-08-28T05:12:40.582Z,101092.31
2018-08-28T05:15:07.605Z,101086.94
2018-08-28T05:17:34.613Z,101095.58
2018-08-28T05:20:01.605Z,101101.26
2018-08-28T05:22:28.599Z,101099.70
2018-08-28T05:24:55.886Z,101107.84
2018-08-28T05:27:22.943Z,101104.22
2018-08-28T05:29:49.973Z,101106.58
2018-08-28T05:32:17.063Z,101116.08
2018-08-28T05:34:44.419Z,101116.21
2018-08-28T05:37:11.444Z,101118.04
2018-08-28T05:39:38.678Z,101121.13
2018-08-28T05:42:05.744Z,101125.08
2018-08-28T05:44:33.048Z,101128.56
2018-08-28T05:47:00.325Z,101129.26
2018-08-28T05:49:27.347Z,101129.52
2018-08-28T05:51:54.559Z,101132.20
2018-08-28T05:54:21.548Z,101124.13
2018-08-28T05:56:48.539Z,101127.22
2018-08-28T05:59:15.548Z,101129.34
2018-08-28T06:01:42.647Z,101134.09
2018-08-28T06:04:09.726Z,101132.03
2018-08-28T06:06:36.808Z,101136.69
2018-08-28T06:09:04.920Z,101137.71
2018-08-28T06:11:31.900Z,101146.33
2018-08-28T06:13:58.951Z,101150.38
2018-08-28T06:16:25.934Z,101148.47
2018-08-28T06:18:52.963Z,101145.44
2018-08-28T06:21:19.960Z,101147.83
2018-08-28T06:23:46.943Z,101158.41
2018-08-28T06:26:13.936Z,101152.40
2018-08-28T06:28:41.024Z,101154.53
2018-08-28T06:31:08.093Z,101150.83
2018-08-28T06:33:35.080Z,101153.52
2018-08-28T06:36:02.107Z,101155.56
2018-08-28T06:38:29.095Z,101149.36
2018-08-28T06:40:56.412Z,101159.33
2018-08-28T06:43:23.425Z,101160.44
2018-08-28T06:45:50.404Z,101173.55
2018-08-28T06:48:17.464Z,101171.82
2018-08-28T06:50:44.555Z,101173.39
2018-08-28T06:53:11.560Z,101178.33
2018-08-28T06:55:38.548Z,101179.72
2018-08-28T06:58:05.552Z,101181.08
2018-08-28T07:00:32.545Z,101191.20
2018-08-28T07:02:59.550Z,101188.02
2018-08-28T07:05:26.680Z,101190.70
2018-08-28T07:07:53.663Z,101193.40
2018-08-28T07:10:20.701Z,101198.86
2018-08-28T07:12:47.656Z,101195.94
2018-08-28T07:15:14.746Z,101200.75
2018-08-28T07:17:41.804Z,101202.27
2018-08-28T07:20:08.936Z,101198.59
2018-08-28T07:22:35.927Z,101198.19
2018-08-28T07:25:03.110Z,101204.67
2018-08-28T07:27:30.215Z,101205.44
2018-08-28T07:29:57.263Z,101196.48
2018-08-28T07:32:24.358Z,101210.66
2018-08-28T07:34:51.344Z,101211.53
2018-08-28T07:37:18.337Z,101211.83
2018-08-28T07:39:45.933Z,101211.83
2018-08-28T07:42:12.916Z,101213.39
2018-08-28T07:44:39.984Z,101215.81
2018-08-28T07:47:06.967Z,101214.34
2018-08-28T07:49:34.812Z,101213.31
2018-08-28T07:52:01.898Z,101218.23
2018-08-28T07:54:28.955Z,101220.69
2018-08-28T07:56:55.932Z,101225.17
2018-08-28T07:59:22.911Z,101226.52
2018-08-28T08:01:50.485Z,101227.14
2018-08-28T08:04:17.552Z,101230.85
2018-08-28T08:06:44.549Z,101231.23
2018-08-28T08:09:11.831Z,101227.40
2018-08-28T08:11:38.975Z,101225.17
2018-08-28T08:14:06.275Z,101237.27
2018-08-28T08:16:33.461Z,101231.42
2018-08-28T08:19:00.500Z,101238.23
2018-08-28T08:21:27.656Z,101241.56
2018-08-28T08:23:54.800Z,101243.97
2018-08-28T08:26:22.071Z,101250.86
2018-08-28T08:28:49.173Z,101248.59
2018-08-28T08:31:16.163Z,101255.78
2018-08-28T08:33:43.261Z,101257.67
2018-08-28T08:36:15.139Z,101250.33
2018-08-28T08:38:47.657Z,101250.38
2018-08-28T08:41:26.627Z,101252.24
2018-08-28T08:44:02.913Z,101252.91
2018-08-28T08:46:36.423Z,101258.80
2018-08-28T08:49:11.395Z,101259.30
2018-08-28T08:51:44.060Z,101260.92
2018-08-28T08:54:27.773Z,101261.56
2018-08-28T08:57:01.282Z,101257.65
2018-08-28T08:59:45.572Z,101257.11
2018-08-28T09:02:20.892Z,101257.81
2018-08-28T09:04:48.885Z,101256.07
2018-08-28T09:07:25.455Z,101258.38
2018-08-28T09:10:20.733Z,101261.00
2018-08-28T09:12:56.507Z,101256.65
2018-08-28T09:15:32.099Z,101260.23
2018-08-28T09:18:07.444Z,101257.02
2018-08-28T09:20:37.619Z,101254.73
2018-08-28T09:25:44.466Z,101255.84
2018-08-28T09:28:12.111Z,101258.11
2018-08-28T09:30:44.223Z,101261.00
2018-08-28T09:33:18.167Z,101260.77
2018-08-28T09:35:49.334Z,101267.25
2018-08-28T09:38:23.686Z,101265.15
2018-08-28T09:41:03.296Z,101261.80
2018-08-28T09:43:43.058Z,101265.98
2018-08-28T09:46:14.607Z,101269.97
2018-08-28T09:48:45.336Z,101269.48
2018-08-28T09:51:16.214Z,101275.23
2018-08-28T09:53:50.108Z,101276.22
2018-08-28T09:56:20.530Z,101274.82
2018-08-28T09:58:51.448Z,101268.63
2018-08-28T10:01:29.205Z,101272.56
2018-08-28T10:03:58.918Z,101271.16
2018-08-28T10:06:29.820Z,101270.34
2018-08-28T10:11:44.628Z,101274.00
2018-08-28T10:14:19.031Z,101269.91
2018-08-28T10:16:46.374Z,101273.04
2018-08-28T10:19:13.354Z,101273.13
2018-08-28T10:21:40.411Z,101274.31
2018-08-28T10:24:07.475Z,101275.45
2018-08-28T10:26:34.475Z,101277.08
2018-08-28T10:29:01.556Z,101278.73
2018-08-28T10:31:28.729Z,101276.80
2018-08-28T10:33:55.724Z,101285.41
2018-08-28T10:36:22.816Z,101288.00
2018-08-28T10:38:49.822Z,101290.72
2018-08-28T10:41:17.087Z,101289.67
2018-08-28T10:43:44.145Z,101288.81
2018-08-28T10:46:11.154Z,101284.94
2018-08-28T10:48:38.433Z,101284.19
2018-08-28T10:51:05.447Z,101293.59
2018-08-28T10:53:32.513Z,101292.45
2018-08-28T10:55:59.500Z,101291.37
2018-08-28T10:58:26.557Z,101296.91
2018-08-28T11:00:53.623Z,101299.39
2018-08-28T11:03:20.649Z,101301.86
2018-08-28T11:05:47.827Z,101305.94
2018-08-28T11:08:14.812Z,101305.64
2018-08-28T11:10:41.920Z,101307.89
2018-08-28T11:13:09.474Z,101311.25
2018-08-28T11:15:36.543Z,101316.46
2018-08-28T11:18:03.575Z,101317.70
2018-08-28T11:20:30.627Z,101329.03
2018-08-28T11:25:31.567Z,101312.89
2018-08-28T11:27:58.619Z,101320.98
2018-08-28T11:30:25.665Z,101319.83
2018-08-28T11:32:53.009Z,101319.97
2018-08-28T11:35:19.995Z,101324.94
2018-08-28T11:37:47.194Z,101328.31
2018-08-28T11:40:14.270Z,101324.14
2018-08-28T11:42:41.520Z,101326.44
2018-08-28T11:45:08.568Z,101324.67
2018-08-28T11:47:35.639Z,101331.47
2018-08-28T11:50:02.692Z,101331.13
2018-08-28T11:52:29.725Z,101331.76
2018-08-28T11:54:57.072Z,101326.62
2018-08-28T11:57:24.104Z,101317.89
2018-08-28T11:59:51.175Z,101321.92
2018-08-28T12:02:18.327Z,101327.72
2018-08-28T12:07:26.734Z,101327.63
2018-08-28T12:09:57.971Z,101334.48
2018-08-28T12:12:31.572Z,101333.43
2018-08-28T12:15:02.961Z,101336.98
2018-08-28T12:17:35.292Z,101337.10
2018-08-28T12:20:10.862Z,101340.84
2018-08-28T12:22:42.409Z,101341.48
2018-08-28T12:25:13.057Z,101337.84
2018-08-28T12:27:46.745Z,101338.59
2018-08-28T12:30:17.237Z,101350.58
2018-08-28T12:32:46.956Z,101344.66
2018-08-28T12:35:25.492Z,101341.41
2018-08-28T12:38:03.257Z,101351.81
2018-08-28T12:40:35.143Z,101349.45
2018-08-28T12:43:15.033Z,101343.02
2018-08-28T12:48:21.449Z,101348.83
2018-08-28T12:54:11.465Z,101343.50
2018-08-28T12:56:41.820Z,101339.83
2018-08-28T12:59:14.043Z,101341.13
2018-08-28T13:04:22.821Z,101347.70
2018-08-28T13:06:58.918Z,101346.67
2018-08-28T13:09:34.872Z,101343.00
2018-08-28T13:12:09.812Z,101346.05
2018-08-28T13:14:41.898Z,101346.94
2018-08-28T13:17:14.960Z,101348.70
2018-08-28T13:19:47.740Z,101343.91
2018-08-28T13:22:17.173Z,101345.73
2018-08-28T13:24:52.479Z,101347.44
2018-08-28T13:27:24.042Z,101346.50
2018-08-28T13:29:59.940Z,101355.08
2018-08-28T13:32:32.633Z,101340.95
2018-08-28T13:35:02.534Z,101345.48
2018-08-28T13:37:32.671Z,101350.44
2018-08-28T13:40:01.853Z,101350.09
2018-08-28T13:42:33.844Z,101352.37
2018-08-28T13:45:10.874Z,101349.94
2018-08-28T13:47:43.589Z,101343.62
2018-08-28T13:50:16.974Z,101340.28
2018-08-28T13:52:46.890Z,101347.66
2018-08-28T13:55:13.881Z,101348.93
2018-08-28T13:57:41.002Z,101342.31
2018-08-28T14:00:08.430Z,101345.52
2018-08-28T14:02:36.496Z,101344.79
2018-08-28T14:05:03.707Z,101339.69
2018-08-28T14:07:30.797Z,101347.55
2018-08-28T14:09:57.973Z,101345.89
2018-08-28T14:12:24.990Z,101349.13
2018-08-28T14:14:52.394Z,101348.69
2018-08-28T14:17:19.388Z,101348.96
2018-08-28T14:19:46.385Z,101347.34
2018-08-28T14:22:13.531Z,101345.10
2018-08-28T14:24:40.593Z,101346.48
2018-08-28T14:27:07.839Z,101348.96
2018-08-28T14:29:34.897Z,101345.66
2018-08-28T14:32:02.403Z,101345.21
2018-08-28T14:34:29.397Z,101343.94
2018-08-28T14:36:56.723Z,101350.91
2018-08-28T14:39:23.735Z,101347.59
2018-08-28T14:41:50.784Z,101340.97
2018-08-28T14:44:18.156Z,101342.77
2018-08-28T14:46:45.146Z,101345.45
2018-08-28T14:49:12.150Z,101342.05
2018-08-28T14:51:39.248Z,101337.80
2018-08-28T14:54:06.226Z,101336.73
2018-08-28T14:56:33.581Z,101335.33
2018-08-28T14:59:00.585Z,101331.94
2018-08-28T15:01:27.579Z,101333.72
2018-08-28T15:03:54.868Z,101331.72
2018-08-28T15:06:22.255Z,101321.72
2018-08-28T15:08:49.360Z,101328.09
2018-08-28T15:11:16.345Z,101323.53
2018-08-28T15:13:43.740Z,101318.68
2018-08-28T15:16:10.724Z,101319.61
2018-08-28T15:18:37.711Z,101309.38
2018-08-28T15:21:04.963Z,101315.98
2018-08-28T15:23:31.922Z,101314.59
2018-08-28T15:25:58.951Z,101318.03
2018-08-28T15:28:26.031Z,101316.13
2018-08-28T15:30:53.123Z,101314.82
2018-08-28T15:33:20.198Z,101318.02
2018-08-28T15:35:47.180Z,101312.36
2018-08-28T15:38:14.571Z,101309.37
2018-08-28T15:40:41.700Z,101310.39
2018-08-28T15:43:08.751Z,101312.90
2018-08-28T15:45:35.807Z,101313.47
2018-08-28T15:48:02.794Z,101317.26
2018-08-28T15:50:29.852Z,101317.36
2018-08-28T15:52:56.887Z,101320.45
2018-08-28T15:55:24.187Z,101312.19
2018-08-28T15:57:51.359Z,101313.88
2018-08-28T16:00:18.350Z,101317.81
2018-08-28T16:02:45.799Z,101318.30
2018-08-28T16:05:13.348Z,101315.05
2018-08-28T16:07:40.436Z,101314.26
2018-08-28T16:10:07.476Z,101310.68
2018-08-28T16:12:34.679Z,101310.45
2018-08-28T16:15:01.756Z,101314.23
2018-08-28T16:17:28.822Z,101314.78
2018-08-28T16:19:55.807Z,101320.81
2018-08-28T16:22:29.799Z,101321.75
2018-08-28T16:24:57.088Z,101316.89
2018-08-28T16:27:24.624Z,101321.09
2018-08-28T16:29:51.673Z,101320.33
2018-08-28T16:32:18.777Z,101313.48
2018-08-28T16:34:46.007Z,101312.47
2018-08-28T16:37:13.390Z,101315.13
2018-08-28T16:39:40.365Z,101317.02
2018-08-28T16:42:07.535Z,101307.27
2018-08-28T16:44:34.547Z,101317.11
2018-08-28T16:47:02.698Z,101313.33
2018-08-28T16:49:29.991Z,101308.08
2018-08-28T16:51:57.149Z,101321.88
2018-08-28T16:54:24.252Z,101310.50
2018-08-28T16:56:51.321Z,101307.25
2018-08-28T16:59:18.296Z,101305.00
2018-08-28T17:01:46.083Z,101302.68
2018-08-28T17:04:13.175Z,101306.88
2018-08-28T17:06:40.191Z,101311.97
2018-08-28T17:09:07.187Z,101307.48
2018-08-28T17:11:34.524Z,101302.68
2018-08-28T17:14:01.571Z,101311.59
2018-08-28T17:16:28.915Z,101308.78
2018-08-28T17:18:55.904Z,101311.17
2018-08-28T17:21:22.900Z,101307.44
2018-08-28T17:23:49.907Z,101308.96
2018-08-28T17:26:17.091Z,101302.30
2018-08-28T17:28:44.156Z,101307.09
2018-08-28T17:31:11.232Z,101314.77
2018-08-28T17:33:38.211Z,101309.55
2018-08-28T17:36:05.251Z,101314.64
2018-08-28T17:38:32.677Z,101312.22
2018-08-28T17:40:59.683Z,101311.13
2018-08-28T17:43:27.076Z,101315.51
2018-08-28T17:45:54.087Z,101321.58
2018-08-28T17:48:21.074Z,101318.50
2018-08-28T17:50:48.055Z,101318.80
2018-08-28T17:53:15.047Z,101323.77
2018-08-28T17:55:42.033Z,101322.45
2018-08-28T17:58:09.039Z,101326.80
2018-08-28T18:00:36.771Z,101333.38
2018-08-28T18:03:03.870Z,101329.45
2018-08-28T18:05:30.837Z,101333.52
2018-08-28T18:07:58.116Z,101334.91
2018-08-28T18:10:25.099Z,101335.20
2018-08-28T18:12:52.219Z,101336.97
2018-08-28T18:15:19.223Z,101332.70
2018-08-28T18:17:46.200Z,101337.05
2018-08-28T18:20:13.570Z,101342.59
2018-08-28T18:22:40.544Z,101342.88
2018-08-28T18:25:07.617Z,101347.73
2018-08-28T18:27:34.695Z,101341.37
2018-08-28T18:30:01.705Z,101345.55
2018-08-28T18:32:28.683Z,101344.56
2018-08-28T18:34:56.024Z,101351.25
2018-08-28T18:37:23.167Z,101350.97
2018-08-28T18:39:50.455Z,101352.94
2018-08-28T18:42:17.883Z,101352.36
2018-08-28T18:44:44.848Z,101350.27
2018-08-28T18:47:12.118Z,101357.20
2018-08-28T18:49:39.235Z,101355.48
2018-08-28T18:52:06.226Z,101349.86
2018-08-28T18:54:33.251Z,101348.87
2018-08-28T18:57:00.344Z,101342.59
2018-08-28T18:59:27.343Z,101350.72
2018-08-28T19:01:54.341Z,101353.21
2018-08-28T19:04:21.405Z,101349.27
2018-08-28T19:06:48.464Z,101348.00
2018-08-28T19:09:15.903Z,101347.01
2018-08-28T19:11:43.196Z,101346.34
2018-08-28T19:14:10.182Z,101342.48
2018-08-28T19:16:37.492Z,101345.20
2018-08-28T19:19:04.528Z,101342.66
2018-08-28T19:21:31.561Z,101350.72
2018-08-28T19:23:59.637Z,101345.78
2018-08-28T19:26:27.851Z,101347.14
2018-08-28T19:28:55.828Z,101346.83
2018-08-28T19:31:23.002Z,101343.91
2018-08-28T19:33:51.060Z,101354.27
2018-08-28T19:36:19.175Z,101344.44
2018-08-28T19:38:46.970Z,101348.63
2018-08-28T19:41:15.336Z,101348.47
2018-08-28T19:43:42.505Z,101346.56
2018-08-28T19:46:09.467Z,101343.03
2018-08-28T19:48:36.527Z,101340.67
2018-08-28T19:51:04.163Z,101344.37
2018-08-28T19:53:31.178Z,101345.49
2018-08-28T19:55:58.197Z,101342.94
2018-08-28T19:58:25.239Z,101339.37
2018-08-28T20:00:52.546Z,101339.64
2018-08-28T20:03:19.656Z,101331.70
2018-08-28T20:05:47.004Z,101330.35
2018-08-28T20:08:13.945Z,101326.63
2018-08-28T20:10:41.016Z,101328.63
2018-08-28T20:13:08.285Z,101329.36
2018-08-28T20:15:35.266Z,101333.80
2018-08-28T20:18:02.324Z,101330.58
2018-08-28T20:20:29.335Z,101322.61
2018-08-28T20:22:56.348Z,101328.17
2018-08-28T20:25:23.331Z,101325.91
2018-08-28T20:27:50.332Z,101322.42
2018-08-28T20:30:17.554Z,101319.06
2018-08-28T20:32:45.149Z,101323.50
2018-08-28T20:35:12.209Z,101313.25
2018-08-28T20:37:39.619Z,101308.91
2018-08-28T20:40:06.856Z,101313.48
2018-08-28T20:42:34.307Z,101314.30
2018-08-28T20:45:01.641Z,101313.50
2018-08-28T20:47:28.623Z,101314.03
2018-08-28T20:49:56.100Z,101308.15
2018-08-28T20:52:23.154Z,101304.59
2018-08-28T20:54:50.687Z,101298.89
2018-08-28T20:57:17.688Z,101306.19
2018-08-28T20:59:44.668Z,101303.78
2018-08-28T21:02:11.661Z,101307.09
2018-08-28T21:04:38.908Z,101303.59
2018-08-28T21:07:06.345Z,101301.97
2018-08-28T21:09:33.772Z,101302.29
2018-08-28T21:12:00.753Z,101296.22
2018-08-28T21:14:27.841Z,101286.41
2018-08-28T21:16:54.930Z,101287.81
2018-08-28T21:19:21.931Z,101288.92
2018-08-28T21:21:49.184Z,101294.94
2018-08-28T21:24:17.059Z,101287.32
2018-08-28T21:26:44.385Z,101283.66
2018-08-28T21:29:11.440Z,101277.70
2018-08-28T21:31:38.620Z,101276.92
2018-08-28T21:34:05.625Z,101275.44
2018-08-28T21:36:32.632Z,101279.06
2018-08-28T21:38:59.968Z,101280.72
2018-08-28T21:41:27.277Z,101274.17
2018-08-28T21:43:54.570Z,101272.62
2018-08-28T21:46:21.565Z,101270.91
2018-08-28T21:48:48.825Z,101273.22
2018-08-28T21:51:16.111Z,101277.09
2018-08-28T21:53:43.080Z,101277.03
2018-08-28T21:56:10.168Z,101280.06
2018-08-28T21:58:37.327Z,101277.84
2018-08-28T22:01:09.315Z,101283.20
2018-08-28T22:03:36.523Z,101283.87
2018-08-28T22:06:04.166Z,101278.97
2018-08-28T22:08:31.599Z,101272.91
2018-08-28T22:10:58.607Z,101280.57
2018-08-28T22:13:25.604Z,101273.77
2018-08-28T22:15:52.669Z,101280.84
2018-08-28T22:18:19.659Z,101269.41
2018-08-28T22:20:52.759Z,101269.95
2018-08-28T22:23:19.768Z,101268.63
2018-08-28T22:25:46.744Z,101267.55
2018-08-28T22:28:13.833Z,101269.91
2018-08-28T22:30:41.295Z,101272.76
2018-08-28T22:33:08.384Z,101271.08
2018-08-28T22:35:35.768Z,101272.84
2018-08-28T22:38:02.813Z,101270.22
2018-08-28T22:40:29.790Z,101269.30
2018-08-28T22:42:56.971Z,101263.07
2018-08-28T22:45:23.964Z,101269.88
2018-08-28T22:47:51.219Z,101266.35
2018-08-28T22:50:18.578Z,101267.59
2018-08-28T22:52:45.635Z,101264.15
2018-08-28T22:55:12.655Z,101264.84
2018-08-28T22:57:39.939Z,101249.32
2018-08-28T23:00:06.986Z,101262.75
2018-08-28T23:02:33.985Z,101269.55
2018-08-28T23:05:00.991Z,101260.41
2018-08-28T23:07:27.969Z,101261.38
2018-08-28T23:09:54.955Z,101261.22
2018-08-28T23:12:22.356Z,101266.70
2018-08-28T23:14:49.372Z,101266.35
2018-08-28T23:17:16.367Z,101254.24
2018-08-28T23:19:43.531Z,101254.90
2018-08-28T23:22:10.509Z,101255.70
2018-08-28T23:24:37.496Z,101249.58
2018-08-28T23:27:04.546Z,101254.78
2018-08-28T23:29:32.025Z,101249.68
2018-08-28T23:31:58.999Z,101252.46
2018-08-28T23:34:25.972Z,101251.75
2018-08-28T23:36:53.293Z,101254.94
2018-08-28T23:39:20.270Z,101248.70
2018-08-28T23:41:47.367Z,101255.24
2018-08-28T23:44:14.477Z,101257.16
2018-08-28T23:46:41.528Z,101255.89
2018-08-28T23:49:08.613Z,101252.84
2018-08-28T23:51:35.611Z,101258.61
2018-08-28T23:54:02.838Z,101259.56
2018-08-28T23:56:29.843Z,101254.53
2018-08-28T23:58:57.009Z,101252.95
